sensor_id;sensor_type;location;lat;lon;timestamp;temperature;humidity
20803;DHT22;10562;-33.856;151.182;2023-07-02T00:00:13;13.10;99.90
20803;DHT22;10562;-33.856;151.182;2023-07-02T00:02:44;13.10;99.90
20803;DHT22;10562;-33.856;151.182;2023-07-02T00:05:14;13.30;99.90
20803;DHT22;10562;-33.856;151.182;2023-07-02T00:07:46;13.40;99.90
20803;DHT22;10562;-33.856;151.182;2023-07-02T00:10:18;13.50;99.90
20803;DHT22;10562;-33.856;151.182;2023-07-02T00:12:49;13.60;99.90
20803;DHT22;10562;-33.856;151.182;2023-07-02T00:15:20;13.70;99.90
20803;DHT22;10562;-33.856;151.182;2023-07-02T00:17:50;13.90;99.90
20803;DHT22;10562;-33.856;151.182;2023-07-02T00:20:24;14.00;99.90
20803;DHT22;10562;-33.856;151.182;2023-07-02T00:22:54;14.20;99.90
20803;DHT22;10562;-33.856;151.182;2023-07-02T00:25:27;14.20;99.90
20803;DHT22;10562;-33.856;151.182;2023-07-02T00:27:59;14.30;99.90
20803;DHT22;10562;-33.856;151.182;2023-07-02T00:30:30;14.40;99.90
20803;DHT22;10562;-33.856;151.182;2023-07-02T00:33:01;14.50;99.90
20803;DHT22;10562;-33.856;151.182;2023-07-02T00:35:31;14.50;99.90
20803;DHT22;10562;-33.856;151.182;2023-07-02T00:38:02;14.70;99.90
20803;DHT22;10562;-33.856;151.182;2023-07-02T00:40:35;14.80;99.90
20803;DHT22;10562;-33.856;151.182;2023-07-02T00:43:06;15.00;99.90
20803;DHT22;10562;-33.856;151.182;2023-07-02T00:45:40;15.10;99.90
20803;DHT22;10562;-33.856;151.182;2023-07-02T00:48:12;15.10;99.90
20803;DHT22;10562;-33.856;151.182;2023-07-02T00:50:42;15.30;99.90
20803;DHT22;10562;-33.856;151.182;2023-07-02T00:53:14;15.40;99.90
20803;DHT22;10562;-33.856;151.182;2023-07-02T00:55:47;15.40;99.90
20803;DHT22;10562;-33.856;151.182;2023-07-02T00:58:17;15.40;99.90
20803;DHT22;10562;-33.856;151.182;2023-07-02T01:00:48;15.50;99.90
20803;DHT22;10562;-33.856;151.182;2023-07-02T01:03:19;15.50;99.90
20803;DHT22;10562;-33.856;151.182;2023-07-02T01:05:50;15.60;99.90
20803;DHT22;10562;-33.856;151.182;2023-07-02T01:08:21;15.60;99.90
20803;DHT22;10562;-33.856;151.182;2023-07-02T01:10:54;15.70;99.90
20803;DHT22;10562;-33.856;151.182;2023-07-02T01:13:25;15.90;99.90
20803;DHT22;10562;-33.856;151.182;2023-07-02T01:15:56;16.00;99.90
20803;DHT22;10562;-33.856;151.182;2023-07-02T01:18:27;16.10;99.90
20803;DHT22;10562;-33.856;151.182;2023-07-02T01:21:00;16.20;99.90
20803;DHT22;10562;-33.856;151.182;2023-07-02T01:23:34;16.30;99.90
20803;DHT22;10562;-33.856;151.182;2023-07-02T01:26:05;16.30;99.90
20803;DHT22;10562;-33.856;151.182;2023-07-02T01:28:38;16.50;99.90
20803;DHT22;10562;-33.856;151.182;2023-07-02T01:31:09;16.60;99.90
20803;DHT22;10562;-33.856;151.182;2023-07-02T01:33:40;16.60;99.90
20803;DHT22;10562;-33.856;151.182;2023-07-02T01:36:13;16.80;99.90
20803;DHT22;10562;-33.856;151.182;2023-07-02T01:38:44;17.00;99.90
20803;DHT22;10562;-33.856;151.182;2023-07-02T01:41:14;17.10;99.90
20803;DHT22;10562;-33.856;151.182;2023-07-02T01:43:45;17.20;99.90
20803;DHT22;10562;-33.856;151.182;2023-07-02T01:46:16;17.30;99.90
20803;DHT22;10562;-33.856;151.182;2023-07-02T01:48:47;17.40;99.90
20803;DHT22;10562;-33.856;151.182;2023-07-02T01:51:20;17.50;99.90
20803;DHT22;10562;-33.856;151.182;2023-07-02T01:53:51;17.70;99.90
20803;DHT22;10562;-33.856;151.182;2023-07-02T01:56:21;17.80;99.90
20803;DHT22;10562;-33.856;151.182;2023-07-02T01:58:52;17.90;99.90
20803;DHT22;10562;-33.856;151.182;2023-07-02T02:01:23;18.00;99.90
20803;DHT22;10562;-33.856;151.182;2023-07-02T02:03:54;18.10;99.90
20803;DHT22;10562;-33.856;151.182;2023-07-02T02:06:26;18.20;99.90
20803;DHT22;10562;-33.856;151.182;2023-07-02T02:09:00;18.20;99.90
20803;DHT22;10562;-33.856;151.182;2023-07-02T02:11:32;18.30;99.90
20803;DHT22;10562;-33.856;151.182;2023-07-02T02:14:03;18.20;99.90
20803;DHT22;10562;-33.856;151.182;2023-07-02T02:16:34;18.20;99.90
20803;DHT22;10562;-33.856;151.182;2023-07-02T02:19:05;18.10;99.90
20803;DHT22;10562;-33.856;151.182;2023-07-02T02:21:38;17.80;99.90
20803;DHT22;10562;-33.856;151.182;2023-07-02T02:24:09;17.90;99.90
20803;DHT22;10562;-33.856;151.182;2023-07-02T02:26:40;18.00;99.90
20803;DHT22;10562;-33.856;151.182;2023-07-02T02:29:11;18.20;99.90
20803;DHT22;10562;-33.856;151.182;2023-07-02T02:31:42;18.50;99.90
20803;DHT22;10562;-33.856;151.182;2023-07-02T02:34:13;18.60;99.90
20803;DHT22;10562;-33.856;151.182;2023-07-02T02:36:46;18.60;99.90
20803;DHT22;10562;-33.856;151.182;2023-07-02T02:39:17;18.70;99.90
20803;DHT22;10562;-33.856;151.182;2023-07-02T02:41:47;18.80;99.90
20803;DHT22;10562;-33.856;151.182;2023-07-02T02:44:18;18.70;99.90
20803;DHT22;10562;-33.856;151.182;2023-07-02T02:46:50;18.80;99.90
20803;DHT22;10562;-33.856;151.182;2023-07-02T02:49:21;18.70;99.90
20803;DHT22;10562;-33.856;151.182;2023-07-02T02:51:54;18.80;99.90
20803;DHT22;10562;-33.856;151.182;2023-07-02T02:54:25;18.80;99.90
20803;DHT22;10562;-33.856;151.182;2023-07-02T02:56:57;18.80;99.90
20803;DHT22;10562;-33.856;151.182;2023-07-02T02:59:28;18.90;99.90
20803;DHT22;10562;-33.856;151.182;2023-07-02T03:01:58;18.90;99.90
20803;DHT22;10562;-33.856;151.182;2023-07-02T03:04:29;18.90;99.90
20803;DHT22;10562;-33.856;151.182;2023-07-02T03:07:02;19.00;99.90
20803;DHT22;10562;-33.856;151.182;2023-07-02T03:09:40;19.00;99.90
20803;DHT22;10562;-33.856;151.182;2023-07-02T03:12:12;19.00;99.90
20803;DHT22;10562;-33.856;151.182;2023-07-02T03:14:42;19.10;99.90
20803;DHT22;10562;-33.856;151.182;2023-07-02T03:17:15;19.10;99.90
20803;DHT22;10562;-33.856;151.182;2023-07-02T03:19:46;19.10;99.90
20803;DHT22;10562;-33.856;151.182;2023-07-02T03:22:19;19.10;99.90
20803;DHT22;10562;-33.856;151.182;2023-07-02T03:24:49;19.00;99.90
20803;DHT22;10562;-33.856;151.182;2023-07-02T03:27:20;19.00;99.90
20803;DHT22;10562;-33.856;151.182;2023-07-02T03:29:52;19.00;99.90
20803;DHT22;10562;-33.856;151.182;2023-07-02T03:32:23;19.00;99.90
20803;DHT22;10562;-33.856;151.182;2023-07-02T03:34:53;19.00;99.90
20803;DHT22;10562;-33.856;151.182;2023-07-02T03:37:26;19.10;99.90
20803;DHT22;10562;-33.856;151.182;2023-07-02T03:39:57;19.30;99.90
20803;DHT22;10562;-33.856;151.182;2023-07-02T03:42:28;19.20;99.90
20803;DHT22;10562;-33.856;151.182;2023-07-02T03:44:59;19.20;99.90
20803;DHT22;10562;-33.856;151.182;2023-07-02T03:47:35;19.20;99.90
20803;DHT22;10562;-33.856;151.182;2023-07-02T03:50:06;19.30;99.90
20803;DHT22;10562;-33.856;151.182;2023-07-02T03:52:40;19.30;99.90
20803;DHT22;10562;-33.856;151.182;2023-07-02T03:55:12;19.30;99.90
20803;DHT22;10562;-33.856;151.182;2023-07-02T03:57:43;19.30;99.90
20803;DHT22;10562;-33.856;151.182;2023-07-02T04:00:13;19.20;99.90
20803;DHT22;10562;-33.856;151.182;2023-07-02T04:02:44;19.10;99.90
20803;DHT22;10562;-33.856;151.182;2023-07-02T04:05:15;19.20;99.90
20803;DHT22;10562;-33.856;151.182;2023-07-02T04:07:48;19.20;99.90
20803;DHT22;10562;-33.856;151.182;2023-07-02T04:10:19;19.20;99.90
20803;DHT22;10562;-33.856;151.182;2023-07-02T04:12:49;19.10;99.90
20803;DHT22;10562;-33.856;151.182;2023-07-02T04:15:20;19.00;99.90
20803;DHT22;10562;-33.856;151.182;2023-07-02T04:17:52;19.00;99.90
20803;DHT22;10562;-33.856;151.182;2023-07-02T04:20:33;18.90;99.90
20803;DHT22;10562;-33.856;151.182;2023-07-02T04:23:08;18.90;99.90
20803;DHT22;10562;-33.856;151.182;2023-07-02T04:25:39;18.80;99.90
20803;DHT22;10562;-33.856;151.182;2023-07-02T04:28:10;18.70;99.90
20803;DHT22;10562;-33.856;151.182;2023-07-02T04:30:40;18.70;99.90
20803;DHT22;10562;-33.856;151.182;2023-07-02T04:33:11;18.70;99.90
20803;DHT22;10562;-33.856;151.182;2023-07-02T04:35:42;18.70;99.90
20803;DHT22;10562;-33.856;151.182;2023-07-02T04:38:16;18.60;99.90
20803;DHT22;10562;-33.856;151.182;2023-07-02T04:40:47;18.50;99.90
20803;DHT22;10562;-33.856;151.182;2023-07-02T04:43:19;18.40;99.90
20803;DHT22;10562;-33.856;151.182;2023-07-02T04:45:51;18.40;99.90
20803;DHT22;10562;-33.856;151.182;2023-07-02T04:48:22;18.30;99.90
20803;DHT22;10562;-33.856;151.182;2023-07-02T04:50:53;18.30;99.90
20803;DHT22;10562;-33.856;151.182;2023-07-02T04:53:25;18.30;99.90
20803;DHT22;10562;-33.856;151.182;2023-07-02T04:55:56;18.40;99.90
20803;DHT22;10562;-33.856;151.182;2023-07-02T04:58:28;18.30;99.90
20803;DHT22;10562;-33.856;151.182;2023-07-02T05:00:59;18.40;99.90
20803;DHT22;10562;-33.856;151.182;2023-07-02T05:03:30;18.20;99.90
20803;DHT22;10562;-33.856;151.182;2023-07-02T05:06:00;18.10;99.90
20803;DHT22;10562;-33.856;151.182;2023-07-02T05:08:33;17.90;99.90
20803;DHT22;10562;-33.856;151.182;2023-07-02T05:11:04;17.80;99.90
20803;DHT22;10562;-33.856;151.182;2023-07-02T05:13:35;17.80;99.90
20803;DHT22;10562;-33.856;151.182;2023-07-02T05:16:06;17.80;99.90
20803;DHT22;10562;-33.856;151.182;2023-07-02T05:18:38;17.70;99.90
20803;DHT22;10562;-33.856;151.182;2023-07-02T05:21:09;17.60;99.90
20803;DHT22;10562;-33.856;151.182;2023-07-02T05:23:41;17.50;99.90
20803;DHT22;10562;-33.856;151.182;2023-07-02T05:26:12;17.50;99.90
20803;DHT22;10562;-33.856;151.182;2023-07-02T05:28:43;17.40;99.90
20803;DHT22;10562;-33.856;151.182;2023-07-02T05:31:14;17.20;99.90
20803;DHT22;10562;-33.856;151.182;2023-07-02T05:33:45;17.10;99.90
20803;DHT22;10562;-33.856;151.182;2023-07-02T05:36:16;17.10;99.90
20803;DHT22;10562;-33.856;151.182;2023-07-02T05:38:48;17.00;99.90
20803;DHT22;10562;-33.856;151.182;2023-07-02T05:41:22;17.00;99.90
20803;DHT22;10562;-33.856;151.182;2023-07-02T05:43:58;16.90;99.90
20803;DHT22;10562;-33.856;151.182;2023-07-02T05:46:28;16.80;99.90
20803;DHT22;10562;-33.856;151.182;2023-07-02T05:48:59;16.80;99.90
20803;DHT22;10562;-33.856;151.182;2023-07-02T05:51:30;16.60;99.90
20803;DHT22;10562;-33.856;151.182;2023-07-02T05:54:03;16.50;99.90
20803;DHT22;10562;-33.856;151.182;2023-07-02T05:56:34;16.40;99.90
20803;DHT22;10562;-33.856;151.182;2023-07-02T05:59:05;16.40;99.90
20803;DHT22;10562;-33.856;151.182;2023-07-02T06:01:36;16.30;99.90
20803;DHT22;10562;-33.856;151.182;2023-07-02T06:04:06;16.20;99.90
20803;DHT22;10562;-33.856;151.182;2023-07-02T06:06:37;16.00;99.90
20803;DHT22;10562;-33.856;151.182;2023-07-02T06:09:10;15.90;99.90
20803;DHT22;10562;-33.856;151.182;2023-07-02T06:11:41;15.80;99.90
20803;DHT22;10562;-33.856;151.182;2023-07-02T06:14:11;15.80;99.90
20803;DHT22;10562;-33.856;151.182;2023-07-02T06:16:42;15.60;99.90
20803;DHT22;10562;-33.856;151.182;2023-07-02T06:19:13;15.60;99.90
20803;DHT22;10562;-33.856;151.182;2023-07-02T06:21:44;15.50;99.90
20803;DHT22;10562;-33.856;151.182;2023-07-02T06:24:16;15.40;99.90
20803;DHT22;10562;-33.856;151.182;2023-07-02T06:26:47;15.40;99.90
20803;DHT22;10562;-33.856;151.182;2023-07-02T06:29:18;15.30;99.90
20803;DHT22;10562;-33.856;151.182;2023-07-02T06:31:49;15.20;99.90
20803;DHT22;10562;-33.856;151.182;2023-07-02T06:34:19;15.20;99.90
20803;DHT22;10562;-33.856;151.182;2023-07-02T06:36:50;15.10;99.90
20803;DHT22;10562;-33.856;151.182;2023-07-02T06:39:23;15.00;99.90
20803;DHT22;10562;-33.856;151.182;2023-07-02T06:41:54;15.00;99.90
20803;DHT22;10562;-33.856;151.182;2023-07-02T06:44:24;14.90;99.90
20803;DHT22;10562;-33.856;151.182;2023-07-02T06:46:55;14.90;99.90
20803;DHT22;10562;-33.856;151.182;2023-07-02T06:49:26;14.80;99.90
20803;DHT22;10562;-33.856;151.182;2023-07-02T06:51:57;14.80;99.90
20803;DHT22;10562;-33.856;151.182;2023-07-02T06:54:29;14.70;99.90
20803;DHT22;10562;-33.856;151.182;2023-07-02T06:57:00;14.70;99.90
20803;DHT22;10562;-33.856;151.182;2023-07-02T06:59:31;14.60;99.90
20803;DHT22;10562;-33.856;151.182;2023-07-02T07:02:03;14.50;99.90
20803;DHT22;10562;-33.856;151.182;2023-07-02T07:04:34;14.40;99.90
20803;DHT22;10562;-33.856;151.182;2023-07-02T07:07:05;14.30;99.90
20803;DHT22;10562;-33.856;151.182;2023-07-02T07:09:38;14.20;99.90
20803;DHT22;10562;-33.856;151.182;2023-07-02T07:12:09;14.20;99.90
20803;DHT22;10562;-33.856;151.182;2023-07-02T07:14:40;14.10;99.90
20803;DHT22;10562;-33.856;151.182;2023-07-02T07:17:11;14.10;99.90
20803;DHT22;10562;-33.856;151.182;2023-07-02T07:19:42;14.00;99.90
20803;DHT22;10562;-33.856;151.182;2023-07-02T07:22:12;13.90;99.90
20803;DHT22;10562;-33.856;151.182;2023-07-02T07:24:45;13.90;99.90
20803;DHT22;10562;-33.856;151.182;2023-07-02T07:27:16;13.80;99.90
20803;DHT22;10562;-33.856;151.182;2023-07-02T07:29:47;13.70;99.90
20803;DHT22;10562;-33.856;151.182;2023-07-02T07:32:19;13.60;99.90
20803;DHT22;10562;-33.856;151.182;2023-07-02T07:34:50;13.60;99.90
20803;DHT22;10562;-33.856;151.182;2023-07-02T07:37:21;13.50;99.90
20803;DHT22;10562;-33.856;151.182;2023-07-02T07:39:54;13.50;99.90
20803;DHT22;10562;-33.856;151.182;2023-07-02T07:42:25;13.50;99.90
20803;DHT22;10562;-33.856;151.182;2023-07-02T07:44:56;13.50;99.90
20803;DHT22;10562;-33.856;151.182;2023-07-02T07:47:27;13.50;99.90
20803;DHT22;10562;-33.856;151.182;2023-07-02T07:49:57;13.50;99.90
20803;DHT22;10562;-33.856;151.182;2023-07-02T07:52:28;13.40;99.90
20803;DHT22;10562;-33.856;151.182;2023-07-02T07:55:01;13.50;99.90
20803;DHT22;10562;-33.856;151.182;2023-07-02T07:57:32;13.50;99.90
20803;DHT22;10562;-33.856;151.182;2023-07-02T08:00:03;13.50;99.90
20803;DHT22;10562;-33.856;151.182;2023-07-02T08:02:36;13.50;99.90
20803;DHT22;10562;-33.856;151.182;2023-07-02T08:05:07;13.40;99.90
20803;DHT22;10562;-33.856;151.182;2023-07-02T08:07:38;13.40;99.90
20803;DHT22;10562;-33.856;151.182;2023-07-02T08:10:11;13.30;99.90
20803;DHT22;10562;-33.856;151.182;2023-07-02T08:12:42;13.30;99.90
20803;DHT22;10562;-33.856;151.182;2023-07-02T08:15:13;13.30;99.90
20803;DHT22;10562;-33.856;151.182;2023-07-02T08:17:45;13.30;99.90
20803;DHT22;10562;-33.856;151.182;2023-07-02T08:20:16;13.30;99.90
20803;DHT22;10562;-33.856;151.182;2023-07-02T08:22:47;13.30;99.90
20803;DHT22;10562;-33.856;151.182;2023-07-02T08:25:21;13.30;99.90
20803;DHT22;10562;-33.856;151.182;2023-07-02T08:27:53;13.30;99.90
20803;DHT22;10562;-33.856;151.182;2023-07-02T08:30:24;13.30;99.90
20803;DHT22;10562;-33.856;151.182;2023-07-02T08:32:55;13.20;99.90
20803;DHT22;10562;-33.856;151.182;2023-07-02T08:35:25;13.20;99.90
20803;DHT22;10562;-33.856;151.182;2023-07-02T08:37:56;13.20;99.90
20803;DHT22;10562;-33.856;151.182;2023-07-02T08:40:29;13.20;99.90
20803;DHT22;10562;-33.856;151.182;2023-07-02T08:43:00;13.20;99.90
20803;DHT22;10562;-33.856;151.182;2023-07-02T08:45:31;13.10;99.90
20803;DHT22;10562;-33.856;151.182;2023-07-02T08:48:02;13.10;99.90
20803;DHT22;10562;-33.856;151.182;2023-07-02T08:50:33;13.10;99.90
20803;DHT22;10562;-33.856;151.182;2023-07-02T08:53:04;13.10;99.90
20803;DHT22;10562;-33.856;151.182;2023-07-02T08:55:36;13.00;99.90
20803;DHT22;10562;-33.856;151.182;2023-07-02T08:58:07;12.90;99.90
20803;DHT22;10562;-33.856;151.182;2023-07-02T09:00:38;13.00;99.90
20803;DHT22;10562;-33.856;151.182;2023-07-02T09:03:15;12.90;99.90
20803;DHT22;10562;-33.856;151.182;2023-07-02T09:05:51;12.90;99.90
20803;DHT22;10562;-33.856;151.182;2023-07-02T09:08:25;12.90;99.90
20803;DHT22;10562;-33.856;151.182;2023-07-02T09:11:09;12.80;99.90
20803;DHT22;10562;-33.856;151.182;2023-07-02T09:13:47;12.80;99.90
20803;DHT22;10562;-33.856;151.182;2023-07-02T09:16:25;12.80;99.90
20803;DHT22;10562;-33.856;151.182;2023-07-02T09:19:00;12.80;99.90
20803;DHT22;10562;-33.856;151.182;2023-07-02T09:21:41;12.80;99.90
20803;DHT22;10562;-33.856;151.182;2023-07-02T09:24:17;12.70;99.90
20803;DHT22;10562;-33.856;151.182;2023-07-02T09:26:50;12.70;99.90
20803;DHT22;10562;-33.856;151.182;2023-07-02T09:29:23;12.60;99.90
20803;DHT22;10562;-33.856;151.182;2023-07-02T09:31:56;12.50;99.90
20803;DHT22;10562;-33.856;151.182;2023-07-02T09:34:31;12.50;99.90
20803;DHT22;10562;-33.856;151.182;2023-07-02T09:37:03;12.40;99.90
20803;DHT22;10562;-33.856;151.182;2023-07-02T09:39:35;12.40;99.90
20803;DHT22;10562;-33.856;151.182;2023-07-02T09:42:09;12.40;99.90
20803;DHT22;10562;-33.856;151.182;2023-07-02T09:44:41;12.30;99.90
20803;DHT22;10562;-33.856;151.182;2023-07-02T09:47:13;12.30;99.90
20803;DHT22;10562;-33.856;151.182;2023-07-02T09:49:52;12.20;99.90
20803;DHT22;10562;-33.856;151.182;2023-07-02T09:52:24;12.20;99.90
20803;DHT22;10562;-33.856;151.182;2023-07-02T09:54:56;12.10;99.90
20803;DHT22;10562;-33.856;151.182;2023-07-02T09:57:30;12.10;99.90
20803;DHT22;10562;-33.856;151.182;2023-07-02T10:00:01;12.00;99.90
20803;DHT22;10562;-33.856;151.182;2023-07-02T10:02:33;12.00;99.90
20803;DHT22;10562;-33.856;151.182;2023-07-02T10:05:04;11.90;99.90
20803;DHT22;10562;-33.856;151.182;2023-07-02T10:07:34;11.80;99.90
20803;DHT22;10562;-33.856;151.182;2023-07-02T10:10:06;11.80;99.90
20803;DHT22;10562;-33.856;151.182;2023-07-02T10:12:46;11.70;99.90
20803;DHT22;10562;-33.856;151.182;2023-07-02T10:15:26;11.60;99.90
20803;DHT22;10562;-33.856;151.182;2023-07-02T10:17:57;11.60;99.90
20803;DHT22;10562;-33.856;151.182;2023-07-02T10:20:34;11.60;99.90
20803;DHT22;10562;-33.856;151.182;2023-07-02T10:23:05;11.60;99.90
20803;DHT22;10562;-33.856;151.182;2023-07-02T10:25:37;11.50;99.90
20803;DHT22;10562;-33.856;151.182;2023-07-02T10:28:20;11.40;99.90
20803;DHT22;10562;-33.856;151.182;2023-07-02T10:30:54;11.50;99.90
20803;DHT22;10562;-33.856;151.182;2023-07-02T10:33:25;11.40;99.90
20803;DHT22;10562;-33.856;151.182;2023-07-02T10:35:56;11.40;99.90
20803;DHT22;10562;-33.856;151.182;2023-07-02T10:38:27;11.30;99.90
20803;DHT22;10562;-33.856;151.182;2023-07-02T10:40:58;11.30;99.90
20803;DHT22;10562;-33.856;151.182;2023-07-02T10:43:31;11.30;99.90
20803;DHT22;10562;-33.856;151.182;2023-07-02T10:46:02;11.30;99.90
20803;DHT22;10562;-33.856;151.182;2023-07-02T10:48:33;11.30;99.90
20803;DHT22;10562;-33.856;151.182;2023-07-02T10:51:12;11.30;99.90
20803;DHT22;10562;-33.856;151.182;2023-07-02T10:53:43;11.30;99.90
20803;DHT22;10562;-33.856;151.182;2023-07-02T10:56:17;11.30;99.90
20803;DHT22;10562;-33.856;151.182;2023-07-02T10:58:50;11.30;99.90
20803;DHT22;10562;-33.856;151.182;2023-07-02T11:01:25;11.20;99.90
20803;DHT22;10562;-33.856;151.182;2023-07-02T11:04:00;11.30;99.90
20803;DHT22;10562;-33.856;151.182;2023-07-02T11:06:32;11.20;99.90
20803;DHT22;10562;-33.856;151.182;2023-07-02T11:09:03;11.20;99.90
20803;DHT22;10562;-33.856;151.182;2023-07-02T11:11:34;11.20;99.90
20803;DHT22;10562;-33.856;151.182;2023-07-02T11:14:06;11.10;99.90
20803;DHT22;10562;-33.856;151.182;2023-07-02T11:16:37;11.10;99.90
20803;DHT22;10562;-33.856;151.182;2023-07-02T11:19:09;11.10;99.90
20803;DHT22;10562;-33.856;151.182;2023-07-02T11:21:51;11.10;99.90
20803;DHT22;10562;-33.856;151.182;2023-07-02T11:24:28;11.00;99.90
20803;DHT22;10562;-33.856;151.182;2023-07-02T11:26:59;11.10;99.90
20803;DHT22;10562;-33.856;151.182;2023-07-02T11:29:33;11.20;99.90
20803;DHT22;10562;-33.856;151.182;2023-07-02T11:32:08;11.40;99.90
20803;DHT22;10562;-33.856;151.182;2023-07-02T11:34:39;11.50;99.90
20803;DHT22;10562;-33.856;151.182;2023-07-02T11:37:10;11.60;99.90
20803;DHT22;10562;-33.856;151.182;2023-07-02T11:39:44;11.80;99.90
20803;DHT22;10562;-33.856;151.182;2023-07-02T11:42:15;11.90;99.90
20803;DHT22;10562;-33.856;151.182;2023-07-02T11:44:47;11.90;99.90
20803;DHT22;10562;-33.856;151.182;2023-07-02T11:47:18;12.00;99.90
20803;DHT22;10562;-33.856;151.182;2023-07-02T11:49:49;12.00;99.90
20803;DHT22;10562;-33.856;151.182;2023-07-02T11:52:19;12.00;99.90
20803;DHT22;10562;-33.856;151.182;2023-07-02T11:54:50;12.10;99.90
20803;DHT22;10562;-33.856;151.182;2023-07-02T11:57:21;12.10;99.90
20803;DHT22;10562;-33.856;151.182;2023-07-02T11:59:54;12.10;99.90
20803;DHT22;10562;-33.856;151.182;2023-07-02T12:02:25;12.10;99.90
20803;DHT22;10562;-33.856;151.182;2023-07-02T12:04:56;12.10;99.90
20803;DHT22;10562;-33.856;151.182;2023-07-02T12:07:26;12.10;99.90
20803;DHT22;10562;-33.856;151.182;2023-07-02T12:09:57;12.00;99.90
20803;DHT22;10562;-33.856;151.182;2023-07-02T12:12:28;12.10;99.90
20803;DHT22;10562;-33.856;151.182;2023-07-02T12:15:01;12.20;99.90
20803;DHT22;10562;-33.856;151.182;2023-07-02T12:17:31;12.20;99.90
20803;DHT22;10562;-33.856;151.182;2023-07-02T12:20:02;12.20;99.90
20803;DHT22;10562;-33.856;151.182;2023-07-02T12:22:33;12.20;99.90
20803;DHT22;10562;-33.856;151.182;2023-07-02T12:25:04;12.10;99.90
20803;DHT22;10562;-33.856;151.182;2023-07-02T12:27:35;12.10;99.90
20803;DHT22;10562;-33.856;151.182;2023-07-02T12:30:09;12.10;99.90
20803;DHT22;10562;-33.856;151.182;2023-07-02T12:32:40;12.20;99.90
20803;DHT22;10562;-33.856;151.182;2023-07-02T12:35:11;12.20;99.90
20803;DHT22;10562;-33.856;151.182;2023-07-02T12:37:45;12.20;99.90
20803;DHT22;10562;-33.856;151.182;2023-07-02T12:40:17;12.20;99.90
20803;DHT22;10562;-33.856;151.182;2023-07-02T12:42:48;12.30;99.90
20803;DHT22;10562;-33.856;151.182;2023-07-02T12:45:21;12.30;99.90
20803;DHT22;10562;-33.856;151.182;2023-07-02T12:47:52;12.30;99.90
20803;DHT22;10562;-33.856;151.182;2023-07-02T12:50:23;12.20;99.90
20803;DHT22;10562;-33.856;151.182;2023-07-02T12:52:54;12.20;99.90
20803;DHT22;10562;-33.856;151.182;2023-07-02T12:55:24;12.30;99.90
20803;DHT22;10562;-33.856;151.182;2023-07-02T12:57:55;12.30;99.90
20803;DHT22;10562;-33.856;151.182;2023-07-02T13:00:28;12.30;99.90
20803;DHT22;10562;-33.856;151.182;2023-07-02T13:02:59;12.30;99.90
20803;DHT22;10562;-33.856;151.182;2023-07-02T13:05:30;12.30;99.90
20803;DHT22;10562;-33.856;151.182;2023-07-02T13:08:01;12.30;99.90
20803;DHT22;10562;-33.856;151.182;2023-07-02T13:10:32;12.30;99.90
20803;DHT22;10562;-33.856;151.182;2023-07-02T13:13:03;12.40;99.90
20803;DHT22;10562;-33.856;151.182;2023-07-02T13:15:36;12.40;99.90
20803;DHT22;10562;-33.856;151.182;2023-07-02T13:18:06;12.40;99.90
20803;DHT22;10562;-33.856;151.182;2023-07-02T13:20:37;12.50;99.90
20803;DHT22;10562;-33.856;151.182;2023-07-02T13:23:08;12.40;99.90
20803;DHT22;10562;-33.856;151.182;2023-07-02T13:25:38;12.40;99.90
20803;DHT22;10562;-33.856;151.182;2023-07-02T13:28:09;12.50;99.90
20803;DHT22;10562;-33.856;151.182;2023-07-02T13:30:42;12.50;99.90
20803;DHT22;10562;-33.856;151.182;2023-07-02T13:33:13;12.40;99.90
20803;DHT22;10562;-33.856;151.182;2023-07-02T13:35:43;12.40;99.90
20803;DHT22;10562;-33.856;151.182;2023-07-02T13:38:14;12.30;99.90
20803;DHT22;10562;-33.856;151.182;2023-07-02T13:40:45;12.10;99.90
20803;DHT22;10562;-33.856;151.182;2023-07-02T13:43:16;12.10;99.90
20803;DHT22;10562;-33.856;151.182;2023-07-02T13:45:49;12.10;99.90
20803;DHT22;10562;-33.856;151.182;2023-07-02T13:48:19;12.00;99.90
20803;DHT22;10562;-33.856;151.182;2023-07-02T13:50:50;12.10;99.90
20803;DHT22;10562;-33.856;151.182;2023-07-02T13:53:21;12.10;99.90
20803;DHT22;10562;-33.856;151.182;2023-07-02T13:55:52;12.10;99.90
20803;DHT22;10562;-33.856;151.182;2023-07-02T13:58:24;12.10;99.90
20803;DHT22;10562;-33.856;151.182;2023-07-02T14:00:58;12.10;99.90
20803;DHT22;10562;-33.856;151.182;2023-07-02T14:03:29;12.00;99.90
20803;DHT22;10562;-33.856;151.182;2023-07-02T14:06:00;12.00;99.90
20803;DHT22;10562;-33.856;151.182;2023-07-02T14:08:31;12.00;99.90
20803;DHT22;10562;-33.856;151.182;2023-07-02T14:11:02;11.90;99.90
20803;DHT22;10562;-33.856;151.182;2023-07-02T14:13:33;12.00;99.90
20803;DHT22;10562;-33.856;151.182;2023-07-02T14:16:06;12.00;99.90
20803;DHT22;10562;-33.856;151.182;2023-07-02T14:18:36;12.00;99.90
20803;DHT22;10562;-33.856;151.182;2023-07-02T14:21:07;12.00;99.90
20803;DHT22;10562;-33.856;151.182;2023-07-02T14:23:38;12.00;99.90
20803;DHT22;10562;-33.856;151.182;2023-07-02T14:26:09;12.00;99.90
20803;DHT22;10562;-33.856;151.182;2023-07-02T14:28:39;12.00;99.90
20803;DHT22;10562;-33.856;151.182;2023-07-02T14:31:12;12.00;99.90
20803;DHT22;10562;-33.856;151.182;2023-07-02T14:33:43;12.10;99.90
20803;DHT22;10562;-33.856;151.182;2023-07-02T14:36:14;12.00;99.90
20803;DHT22;10562;-33.856;151.182;2023-07-02T14:38:44;12.00;99.90
20803;DHT22;10562;-33.856;151.182;2023-07-02T14:41:15;12.00;99.90
20803;DHT22;10562;-33.856;151.182;2023-07-02T14:43:46;12.00;99.90
20803;DHT22;10562;-33.856;151.182;2023-07-02T14:46:18;12.00;99.90
20803;DHT22;10562;-33.856;151.182;2023-07-02T14:48:50;12.10;99.90
20803;DHT22;10562;-33.856;151.182;2023-07-02T14:51:20;12.10;99.90
20803;DHT22;10562;-33.856;151.182;2023-07-02T14:53:51;12.00;99.90
20803;DHT22;10562;-33.856;151.182;2023-07-02T14:56:23;12.00;99.90
20803;DHT22;10562;-33.856;151.182;2023-07-02T14:58:54;12.00;99.90
20803;DHT22;10562;-33.856;151.182;2023-07-02T15:01:26;11.90;99.90
20803;DHT22;10562;-33.856;151.182;2023-07-02T15:03:57;12.00;99.90
20803;DHT22;10562;-33.856;151.182;2023-07-02T15:06:28;11.90;99.90
20803;DHT22;10562;-33.856;151.182;2023-07-02T15:08:59;11.80;99.90
20803;DHT22;10562;-33.856;151.182;2023-07-02T15:11:29;11.70;99.90
20803;DHT22;10562;-33.856;151.182;2023-07-02T15:14:00;11.70;99.90